Observations for NEW YORK JF KENNEDY, NY (JFK)

KJFK 180451Z 21005KT 10SM BKN250 20/18 A3008 RMK AO2 SLP186 T02000183 403060172 
KJFK 180351Z 19008KT 10SM SCT250 20/19 A3008 RMK AO2 SLP185 T02000189   
KJFK 180251Z 19011KT 10SM SCT250 21/19 A3008 RMK AO2 SLP184 T02060189 55000 
KJFK 180151Z 19009KT 10SM BKN250 21/18 A3008 RMK AO2 SLP185 T02110183   
KJFK 180051Z 18013KT 10SM BKN250 22/18 A3007 RMK AO2 SLP181 T02170183   
KJFK 172351Z 19011KT 10SM BKN250 23/17 A3008 RMK AO2 SLP184 T02280167 10306 20228 55001 
KJFK 172251Z 18011KT 10SM BKN250 24/16 A3007 RMK AO2 SLP184 T02390161   
KJFK 172151Z 18012KT 10SM BKN250 26/14 A3008 RMK AO2 SLP185 T02560139   
KJFK 172051Z 18010KT 10SM BKN250 26/16 A3008 RMK AO2 SLP186 T02560156 53004 
KJFK 171951Z 16009KT 10SM SCT250 28/14 A3007 RMK AO2 SLP182 T02830144   
KJFK 171851Z 18011KT 10SM SCT250 29/12 A3007 RMK AO2 SLP182 T02940122   
KJFK 171751Z 20010KT 10SM FEW150 SCT250 30/12 A3007 RMK AO2 SLP182 T03000117 10300 20239 58013  
KJFK 171651Z 21011KT 10SM SCT250 30/12 A3008 RMK AO2 SLP186 T03000122   
KJFK 171551Z 20009KT 10SM BKN250 29/12 A3009 RMK AO2 SLP190 T02940122   
KJFK 171451Z 24007KT 10SM SCT250 29/14 A3010 RMK AO2 SLP194 T02890144 53009 
KJFK 171351Z 23005KT 10SM SCT250 27/15 A3009 RMK AO2 SLP189 T02670150   
KJFK 171251Z VRB03KT 10SM FEW010 SCT250 26/13 A3009 RMK AO2 SLP188 T02610133
KJFK 171151Z 33004KT 10SM FEW250 24/14 A3008 RMK AO2 SLP185 T02390144 10239 20172 53014 
KJFK 171051Z 33003KT 10SM FEW250 22/16 A3007 RMK AO2 SLP180 T02170156   
KJFK 170951Z 32003KT 10SM FEW250 19/14 A3005 RMK AO2 SLP176 T01940144   
KJFK 170851Z 26003KT 10SM FEW250 18/16 A3004 RMK AO2 SLP171 T01780156 56001 
KJFK 170751Z 23004KT 10SM SCT250 18/16 A3004 RMK AO2 SLP172 T01830156   
KJFK 170651Z 22003KT 10SM FEW250 17/16 A3004 RMK AO2 SLP171 T01720156   
KJFK 170551Z 21005KT 10SM FEW250 18/15 A3004 RMK AO2 SLP172 T01780150 10222 20172 50001 
KJFK 170451Z 21004KT 10SM FEW250 18/14 A3005 RMK AO2 SLP174 T01780144 402780156